AAL1455 KASE-KPSP
Flight info
| Callsign | AAL1455 |
|---|---|
| Flight time | 1h 34m |
| Altitude | 36000 |
| Route | LINDZ JNC PGA YORRK RDBUL1 |
| Aircraft | A319/M-SDE3FGHIRWY/LB1 |
Departure
| Time | 2026-05-07 08:54 |
|---|---|
| Airport | Aspen-Pitkin County Airport (Sardy Field) (KASE) |
Arrival
| Time | 2026-05-07 10:29 |
|---|---|
| Airport | Palm Springs International Airport (KPSP) |
| Time | Latitude | Longitude | Altitude | Speed | Heading |
|---|---|---|---|---|---|
| 2026-05-07 08:40 | 39.21930 | -106.86467 | 7781 ft | 0 kts | 73° |
| 2026-05-07 08:47 | 39.21928 | -106.86474 | 7779 ft | 4 kts | 73° |
| 2026-05-07 08:47 | 39.21921 | -106.86507 | 7758 ft | 4 kts | 72° |
| 2026-05-07 08:47 | 39.21914 | -106.86536 | 7737 ft | 4 kts | 69° |
| 2026-05-07 08:47 | 39.21901 | -106.86560 | 7819 ft | 4 kts | 13° |
| 2026-05-07 08:48 | 39.21877 | -106.86556 | 7821 ft | 4 kts | 338° |
| 2026-05-07 08:48 | 39.21870 | -106.86552 | 7821 ft | 0 kts | 339° |
| 2026-05-07 08:50 | 39.21884 | -106.86559 | 7821 ft | 4 kts | 339° |
| 2026-05-07 08:50 | 39.21913 | -106.86573 | 7818 ft | 5 kts | 339° |
| 2026-05-07 08:50 | 39.21952 | -106.86592 | 7843 ft | 8 kts | 339° |
| 2026-05-07 08:51 | 39.22018 | -106.86624 | 7821 ft | 12 kts | 340° |
| 2026-05-07 08:51 | 39.22101 | -106.86662 | 7820 ft | 13 kts | 340° |
| 2026-05-07 08:51 | 39.22190 | -106.86705 | 7734 ft | 15 kts | 340° |
| 2026-05-07 08:51 | 39.22293 | -106.86754 | 7753 ft | 17 kts | 339° |
| 2026-05-07 08:52 | 39.22407 | -106.86808 | 7754 ft | 18 kts | 340° |
| 2026-05-07 08:52 | 39.22526 | -106.86864 | 7754 ft | 18 kts | 339° |
| 2026-05-07 08:52 | 39.22644 | -106.86921 | 7751 ft | 18 kts | 340° |
| 2026-05-07 08:52 | 39.22759 | -106.86975 | 7752 ft | 18 kts | 340° |
| 2026-05-07 08:53 | 39.22865 | -106.87025 | 7751 ft | 11 kts | 340° |
| 2026-05-07 08:53 | 39.22894 | -106.87100 | 7751 ft | 11 kts | 247° |
| 2026-05-07 08:53 | 39.22830 | -106.87131 | 7750 ft | 10 kts | 167° |
| 2026-05-07 08:53 | 39.22761 | -106.87097 | 7751 ft | 12 kts | 159° |
| 2026-05-07 08:54 | 39.22492 | -106.86970 | 7749 ft | 79 kts | 159° |
| 2026-05-07 08:54 | 39.21768 | -106.86622 | 7752 ft | 140 kts | 160° |
| 2026-05-07 08:54 | 39.20725 | -106.86120 | 8034 ft | 165 kts | 159° |
| 2026-05-07 08:54 | 39.19672 | -106.85606 | 8862 ft | 159 kts | 159° |
| 2026-05-07 08:55 | 39.18656 | -106.85097 | 9646 ft | 154 kts | 159° |
| 2026-05-07 08:55 | 39.17661 | -106.84596 | 10118 ft | 158 kts | 161° |
| 2026-05-07 08:55 | 39.16507 | -106.84579 | 10318 ft | 175 kts | 195° |
| 2026-05-07 08:55 | 39.15313 | -106.84893 | 10776 ft | 177 kts | 188° |
| 2026-05-07 08:56 | 39.14098 | -106.84991 | 11270 ft | 175 kts | 185° |
| 2026-05-07 08:56 | 39.12903 | -106.85034 | 11824 ft | 168 kts | 184° |
| 2026-05-07 08:56 | 39.11757 | -106.85057 | 12334 ft | 162 kts | 185° |
| 2026-05-07 08:56 | 39.10639 | -106.85066 | 12900 ft | 160 kts | 185° |
| 2026-05-07 08:57 | 39.09534 | -106.85056 | 13482 ft | 158 kts | 186° |
| 2026-05-07 08:57 | 39.08447 | -106.85411 | 13675 ft | 169 kts | 220° |
| 2026-05-07 08:57 | 39.07756 | -106.86653 | 13831 ft | 182 kts | 259° |
| 2026-05-07 08:57 | 39.07930 | -106.88302 | 13973 ft | 200 kts | 301° |
| 2026-05-07 08:58 | 39.08982 | -106.89586 | 14173 ft | 221 kts | 321° |
| 2026-05-07 08:58 | 39.10317 | -106.90778 | 14541 ft | 246 kts | 323° |
| 2026-05-07 08:58 | 39.11812 | -106.92049 | 14795 ft | 269 kts | 323° |
| 2026-05-07 08:58 | 39.13440 | -106.93431 | 14950 ft | 292 kts | 324° |
| 2026-05-07 08:59 | 39.15200 | -106.94939 | 15155 ft | 315 kts | 323° |
| 2026-05-07 08:59 | 39.17068 | -106.96560 | 15518 ft | 329 kts | 323° |
| 2026-05-07 08:59 | 39.18984 | -106.98227 | 16169 ft | 334 kts | 323° |
| 2026-05-07 08:59 | 39.20827 | -107.00057 | 16910 ft | 335 kts | 312° |
| 2026-05-07 09:00 | 39.22139 | -107.02518 | 17675 ft | 334 kts | 294° |
| 2026-05-07 09:00 | 39.22714 | -107.05421 | 18378 ft | 337 kts | 274° |
| 2026-05-07 09:00 | 39.22461 | -107.08439 | 18982 ft | 344 kts | 254° |
| 2026-05-07 09:00 | 39.21395 | -107.11222 | 19604 ft | 350 kts | 240° |
| 2026-05-07 09:01 | 39.20082 | -107.13884 | 20217 ft | 353 kts | 240° |
| 2026-05-07 09:01 | 39.18751 | -107.16561 | 20853 ft | 356 kts | 240° |
| 2026-05-07 09:01 | 39.17411 | -107.19257 | 21466 ft | 359 kts | 240° |
| 2026-05-07 09:01 | 39.16063 | -107.21981 | 22120 ft | 362 kts | 240° |
| 2026-05-07 09:02 | 39.14706 | -107.24728 | 22745 ft | 365 kts | 240° |
| 2026-05-07 09:02 | 39.13334 | -107.27500 | 23330 ft | 369 kts | 240° |
| 2026-05-07 09:02 | 39.11949 | -107.30297 | 23841 ft | 372 kts | 240° |
| 2026-05-07 09:02 | 39.10554 | -107.33114 | 24361 ft | 374 kts | 240° |
| 2026-05-07 09:03 | 39.09149 | -107.35949 | 24861 ft | 377 kts | 240° |
| 2026-05-07 09:03 | 39.07734 | -107.38802 | 25334 ft | 379 kts | 241° |
| 2026-05-07 09:03 | 39.06308 | -107.41675 | 25755 ft | 383 kts | 242° |
| 2026-05-07 09:03 | 39.04864 | -107.44580 | 26162 ft | 387 kts | 242° |
| 2026-05-07 09:04 | 39.03406 | -107.47503 | 26612 ft | 390 kts | 242° |
| 2026-05-07 09:04 | 39.01935 | -107.50451 | 27059 ft | 393 kts | 242° |
| 2026-05-07 09:04 | 39.00454 | -107.53420 | 27501 ft | 396 kts | 242° |
| 2026-05-07 09:04 | 38.98961 | -107.56410 | 27913 ft | 399 kts | 242° |
| 2026-05-07 09:05 | 38.97480 | -107.59378 | 28320 ft | 401 kts | 242° |
| 2026-05-07 09:05 | 38.95972 | -107.62402 | 28729 ft | 404 kts | 242° |
| 2026-05-07 09:05 | 38.94448 | -107.65449 | 29134 ft | 407 kts | 243° |
| 2026-05-07 09:05 | 38.92913 | -107.68515 | 29541 ft | 409 kts | 243° |
| 2026-05-07 09:06 | 38.91365 | -107.71598 | 29924 ft | 412 kts | 243° |
| 2026-05-07 09:06 | 38.89804 | -107.74699 | 30224 ft | 415 kts | 243° |
| 2026-05-07 09:06 | 38.88230 | -107.77833 | 30480 ft | 420 kts | 243° |
| 2026-05-07 09:06 | 38.86640 | -107.81002 | 30711 ft | 425 kts | 244° |
| 2026-05-07 09:07 | 38.85035 | -107.84201 | 31094 ft | 429 kts | 244° |
| 2026-05-07 09:07 | 38.83415 | -107.87428 | 31408 ft | 432 kts | 243° |
| 2026-05-07 09:07 | 38.81782 | -107.90677 | 31717 ft | 435 kts | 243° |
| 2026-05-07 09:07 | 38.80135 | -107.93945 | 32013 ft | 438 kts | 243° |
| 2026-05-07 09:08 | 38.78474 | -107.97232 | 32293 ft | 441 kts | 243° |
| 2026-05-07 09:08 | 38.76801 | -108.00533 | 32646 ft | 442 kts | 243° |
| 2026-05-07 09:08 | 38.75125 | -108.03833 | 33054 ft | 442 kts | 242° |
| 2026-05-07 09:08 | 38.73446 | -108.07132 | 33467 ft | 442 kts | 242° |
| 2026-05-07 09:09 | 38.71767 | -108.10432 | 33861 ft | 443 kts | 242° |
| 2026-05-07 09:09 | 38.70089 | -108.13736 | 34222 ft | 442 kts | 242° |
| 2026-05-07 09:09 | 38.68413 | -108.17034 | 34587 ft | 441 kts | 242° |
| 2026-05-07 09:09 | 38.66743 | -108.20318 | 34884 ft | 439 kts | 242° |
| 2026-05-07 09:10 | 38.65081 | -108.23579 | 35284 ft | 437 kts | 242° |
| 2026-05-07 09:10 | 38.63425 | -108.26825 | 35669 ft | 435 kts | 241° |
| 2026-05-07 09:10 | 38.61774 | -108.30060 | 35806 ft | 433 kts | 241° |
| 2026-05-07 09:10 | 38.60142 | -108.33249 | 35826 ft | 424 kts | 241° |
| 2026-05-07 09:11 | 38.56940 | -108.39505 | 35822 ft | 419 kts | 242° |
| 2026-05-07 09:11 | 38.53755 | -108.45727 | 35828 ft | 418 kts | 241° |
| 2026-05-07 09:12 | 38.50564 | -108.51939 | 35831 ft | 418 kts | 241° |
| 2026-05-07 09:12 | 38.47373 | -108.58145 | 35841 ft | 418 kts | 241° |
| 2026-05-07 09:13 | 38.44177 | -108.64340 | 35841 ft | 418 kts | 241° |
| 2026-05-07 09:13 | 38.40999 | -108.70493 | 35837 ft | 418 kts | 241° |
| 2026-05-07 09:14 | 38.37798 | -108.76685 | 35842 ft | 418 kts | 241° |
| 2026-05-07 09:14 | 38.34565 | -108.82914 | 35815 ft | 419 kts | 241° |
| 2026-05-07 09:15 | 38.31368 | -108.89074 | 35816 ft | 420 kts | 241° |
| 2026-05-07 09:15 | 38.28135 | -108.95288 | 35830 ft | 422 kts | 241° |
| 2026-05-07 09:16 | 38.24883 | -109.01506 | 35840 ft | 422 kts | 241° |
| 2026-05-07 09:16 | 38.21629 | -109.07727 | 35814 ft | 422 kts | 241° |
| 2026-05-07 09:17 | 38.18379 | -109.13937 | 35819 ft | 422 kts | 241° |
| 2026-05-07 09:17 | 38.15123 | -109.20145 | 35832 ft | 423 kts | 241° |
| 2026-05-07 09:18 | 38.11874 | -109.26324 | 35840 ft | 424 kts | 241° |
| 2026-05-07 09:18 | 38.08597 | -109.32548 | 35840 ft | 424 kts | 241° |
| 2026-05-07 09:19 | 38.05318 | -109.38763 | 35841 ft | 424 kts | 240° |
| 2026-05-07 09:19 | 38.02032 | -109.44976 | 35851 ft | 424 kts | 241° |
| 2026-05-07 09:20 | 37.98744 | -109.51200 | 35826 ft | 425 kts | 240° |
| 2026-05-07 09:20 | 37.95441 | -109.57441 | 35839 ft | 428 kts | 240° |
| 2026-05-07 09:21 | 37.92154 | -109.63619 | 35833 ft | 428 kts | 240° |
| 2026-05-07 09:21 | 37.88815 | -109.69872 | 35824 ft | 429 kts | 240° |
| 2026-05-07 09:22 | 37.85480 | -109.76124 | 35838 ft | 428 kts | 240° |
| 2026-05-07 09:22 | 37.82147 | -109.82371 | 35823 ft | 429 kts | 240° |
| 2026-05-07 09:23 | 37.78800 | -109.88616 | 35831 ft | 429 kts | 240° |
| 2026-05-07 09:23 | 37.75438 | -109.94868 | 35839 ft | 430 kts | 240° |
| 2026-05-07 09:24 | 37.72074 | -110.01123 | 35844 ft | 431 kts | 240° |
| 2026-05-07 09:24 | 37.68727 | -110.07339 | 35841 ft | 431 kts | 240° |
| 2026-05-07 09:25 | 37.65354 | -110.13586 | 35843 ft | 431 kts | 239° |
| 2026-05-07 09:25 | 37.61969 | -110.19839 | 35832 ft | 432 kts | 239° |
| 2026-05-07 09:26 | 37.58577 | -110.26106 | 35828 ft | 434 kts | 239° |
| 2026-05-07 09:26 | 37.55175 | -110.32391 | 35821 ft | 434 kts | 239° |
| 2026-05-07 09:27 | 37.51769 | -110.38673 | 35836 ft | 434 kts | 239° |
| 2026-05-07 09:28 | 37.47197 | -110.47056 | 35850 ft | 434 kts | 239° |
| 2026-05-07 09:28 | 37.43771 | -110.53317 | 35826 ft | 434 kts | 239° |
| 2026-05-07 09:29 | 37.40345 | -110.59586 | 35828 ft | 435 kts | 239° |
| 2026-05-07 09:29 | 37.36931 | -110.65812 | 35825 ft | 436 kts | 239° |
| 2026-05-07 09:30 | 37.33488 | -110.72081 | 35833 ft | 436 kts | 239° |
| 2026-05-07 09:30 | 37.30040 | -110.78349 | 35840 ft | 436 kts | 239° |
| 2026-05-07 09:31 | 37.26579 | -110.84617 | 35825 ft | 437 kts | 239° |
| 2026-05-07 09:31 | 37.23108 | -110.90900 | 35825 ft | 438 kts | 239° |
| 2026-05-07 09:32 | 37.19629 | -110.97191 | 35846 ft | 439 kts | 238° |
| 2026-05-07 09:32 | 37.16148 | -111.03474 | 35856 ft | 438 kts | 238° |
| 2026-05-07 09:33 | 37.12665 | -111.09745 | 35866 ft | 438 kts | 238° |
| 2026-05-07 09:33 | 37.09186 | -111.16002 | 35888 ft | 438 kts | 238° |
| 2026-05-07 09:34 | 37.05693 | -111.22270 | 35927 ft | 440 kts | 238° |
| 2026-05-07 09:34 | 37.02185 | -111.28547 | 35973 ft | 440 kts | 238° |
| 2026-05-07 09:35 | 36.98672 | -111.34832 | 36010 ft | 441 kts | 238° |
| 2026-05-07 09:35 | 36.95149 | -111.41107 | 36017 ft | 441 kts | 238° |
| 2026-05-07 09:36 | 36.91265 | -111.47062 | 36017 ft | 445 kts | 228° |
| 2026-05-07 09:36 | 36.86880 | -111.52524 | 36025 ft | 445 kts | 228° |
| 2026-05-07 09:37 | 36.82501 | -111.57983 | 35909 ft | 444 kts | 228° |
| 2026-05-07 09:37 | 36.78132 | -111.63431 | 35915 ft | 444 kts | 228° |
| 2026-05-07 09:38 | 36.73763 | -111.68867 | 35915 ft | 444 kts | 228° |
| 2026-05-07 09:38 | 36.69393 | -111.74295 | 35925 ft | 444 kts | 228° |
| 2026-05-07 09:39 | 36.65021 | -111.79720 | 35924 ft | 444 kts | 227° |
| 2026-05-07 09:39 | 36.60633 | -111.85142 | 35928 ft | 445 kts | 227° |
| 2026-05-07 09:40 | 36.56234 | -111.90575 | 35945 ft | 445 kts | 227° |
| 2026-05-07 09:40 | 36.51838 | -111.95996 | 35978 ft | 445 kts | 227° |
| 2026-05-07 09:41 | 36.47441 | -112.01410 | 35984 ft | 445 kts | 227° |
| 2026-05-07 09:41 | 36.43049 | -112.06816 | 36006 ft | 444 kts | 227° |
| 2026-05-07 09:42 | 36.38660 | -112.12208 | 36009 ft | 444 kts | 227° |
| 2026-05-07 09:42 | 36.34262 | -112.17594 | 35995 ft | 445 kts | 227° |
| 2026-05-07 09:43 | 36.29847 | -112.22977 | 36018 ft | 445 kts | 227° |
| 2026-05-07 09:43 | 36.25459 | -112.28335 | 36033 ft | 446 kts | 227° |
| 2026-05-07 09:44 | 36.21042 | -112.33730 | 36064 ft | 446 kts | 227° |
| 2026-05-07 09:44 | 36.16616 | -112.39114 | 36064 ft | 446 kts | 227° |
| 2026-05-07 09:45 | 36.12185 | -112.44497 | 36068 ft | 446 kts | 227° |
| 2026-05-07 09:45 | 36.07747 | -112.49876 | 36049 ft | 447 kts | 226° |
| 2026-05-07 09:46 | 36.03297 | -112.55259 | 36040 ft | 448 kts | 226° |
| 2026-05-07 09:46 | 35.98842 | -112.60651 | 36032 ft | 449 kts | 226° |
| 2026-05-07 09:47 | 35.94385 | -112.66039 | 36048 ft | 448 kts | 226° |
| 2026-05-07 09:47 | 35.89923 | -112.71403 | 36057 ft | 448 kts | 226° |
| 2026-05-07 09:48 | 35.85464 | -112.76763 | 36047 ft | 447 kts | 226° |
| 2026-05-07 09:48 | 35.81007 | -112.82123 | 36030 ft | 448 kts | 226° |
| 2026-05-07 09:49 | 35.76541 | -112.87485 | 36017 ft | 449 kts | 226° |
| 2026-05-07 09:49 | 35.72061 | -112.92838 | 36018 ft | 449 kts | 226° |
| 2026-05-07 09:50 | 35.67573 | -112.98191 | 36009 ft | 449 kts | 226° |
| 2026-05-07 09:50 | 35.63094 | -113.03536 | 36030 ft | 448 kts | 226° |
| 2026-05-07 09:51 | 35.58622 | -113.08860 | 36034 ft | 447 kts | 226° |
| 2026-05-07 09:51 | 35.54155 | -113.14171 | 35997 ft | 447 kts | 226° |
| 2026-05-07 09:52 | 35.49707 | -113.19453 | 35992 ft | 448 kts | 226° |
| 2026-05-07 09:52 | 35.45218 | -113.24775 | 35986 ft | 449 kts | 226° |
| 2026-05-07 09:53 | 35.40724 | -113.30099 | 35989 ft | 449 kts | 226° |
| 2026-05-07 09:53 | 35.36224 | -113.35418 | 35991 ft | 449 kts | 225° |
| 2026-05-07 09:54 | 35.31731 | -113.40714 | 36002 ft | 448 kts | 225° |
| 2026-05-07 09:54 | 35.27237 | -113.46000 | 35983 ft | 448 kts | 225° |
| 2026-05-07 09:55 | 35.22738 | -113.51290 | 35959 ft | 449 kts | 225° |
| 2026-05-07 09:55 | 35.18226 | -113.56579 | 35962 ft | 450 kts | 225° |
| 2026-05-07 09:56 | 35.13705 | -113.61865 | 35961 ft | 450 kts | 225° |
| 2026-05-07 09:56 | 35.09188 | -113.67151 | 35953 ft | 450 kts | 225° |
| 2026-05-07 09:57 | 35.04670 | -113.72437 | 35960 ft | 449 kts | 225° |
| 2026-05-07 09:57 | 35.00154 | -113.77707 | 35955 ft | 449 kts | 225° |
| 2026-05-07 09:58 | 34.95597 | -113.83015 | 35772 ft | 459 kts | 225° |
| 2026-05-07 09:58 | 34.93280 | -113.85711 | 35163 ft | 461 kts | 225° |
| 2026-05-07 09:58 | 34.90939 | -113.88432 | 34165 ft | 471 kts | 224° |
| 2026-05-07 09:58 | 34.88559 | -113.91193 | 33444 ft | 472 kts | 224° |
| 2026-05-07 09:59 | 34.86190 | -113.93933 | 32955 ft | 468 kts | 224° |
| 2026-05-07 09:59 | 34.83820 | -113.96625 | 32423 ft | 464 kts | 223° |
| 2026-05-07 09:59 | 34.81446 | -113.99273 | 31898 ft | 462 kts | 223° |
| 2026-05-07 09:59 | 34.79074 | -114.01888 | 31384 ft | 459 kts | 223° |
| 2026-05-07 10:00 | 34.76709 | -114.04480 | 30879 ft | 456 kts | 223° |
| 2026-05-07 10:00 | 34.74361 | -114.07060 | 30416 ft | 453 kts | 223° |
| 2026-05-07 10:00 | 34.72031 | -114.09629 | 29907 ft | 451 kts | 223° |
| 2026-05-07 10:00 | 34.69723 | -114.12188 | 29424 ft | 447 kts | 223° |
| 2026-05-07 10:01 | 34.67443 | -114.14726 | 28969 ft | 442 kts | 223° |
| 2026-05-07 10:01 | 34.65183 | -114.17232 | 28529 ft | 438 kts | 223° |
| 2026-05-07 10:01 | 34.62943 | -114.19723 | 28088 ft | 435 kts | 224° |
| 2026-05-07 10:01 | 34.60926 | -114.22416 | 27821 ft | 426 kts | 231° |
| 2026-05-07 10:02 | 34.59006 | -114.25122 | 27645 ft | 420 kts | 230° |
| 2026-05-07 10:02 | 34.57100 | -114.27787 | 27435 ft | 417 kts | 230° |
| 2026-05-07 10:02 | 34.55198 | -114.30434 | 27227 ft | 415 kts | 230° |
| 2026-05-07 10:02 | 34.53301 | -114.33066 | 27016 ft | 413 kts | 230° |
| 2026-05-07 10:03 | 34.51437 | -114.35651 | 26810 ft | 412 kts | 230° |
| 2026-05-07 10:03 | 34.49532 | -114.38299 | 26534 ft | 410 kts | 230° |
| 2026-05-07 10:03 | 34.47682 | -114.40869 | 26346 ft | 410 kts | 230° |
| 2026-05-07 10:03 | 34.45811 | -114.43471 | 26143 ft | 409 kts | 230° |
| 2026-05-07 10:04 | 34.43944 | -114.46063 | 25926 ft | 408 kts | 230° |
| 2026-05-07 10:04 | 34.42081 | -114.48648 | 25720 ft | 407 kts | 230° |
| 2026-05-07 10:04 | 34.40226 | -114.51221 | 25514 ft | 405 kts | 230° |
| 2026-05-07 10:04 | 34.38374 | -114.53789 | 25332 ft | 404 kts | 230° |
| 2026-05-07 10:05 | 34.36527 | -114.56346 | 25127 ft | 403 kts | 230° |
| 2026-05-07 10:05 | 34.34683 | -114.58891 | 24928 ft | 401 kts | 230° |
| 2026-05-07 10:05 | 34.32847 | -114.61427 | 24727 ft | 400 kts | 230° |
| 2026-05-07 10:05 | 34.31020 | -114.63957 | 24528 ft | 399 kts | 230° |
| 2026-05-07 10:06 | 34.29198 | -114.66479 | 24332 ft | 397 kts | 230° |
| 2026-05-07 10:06 | 34.27381 | -114.68989 | 24132 ft | 396 kts | 230° |
| 2026-05-07 10:06 | 34.25568 | -114.71488 | 23933 ft | 395 kts | 230° |
| 2026-05-07 10:06 | 34.23758 | -114.73975 | 23740 ft | 393 kts | 230° |
| 2026-05-07 10:07 | 34.21953 | -114.76454 | 23532 ft | 392 kts | 230° |
| 2026-05-07 10:07 | 34.20159 | -114.78922 | 23327 ft | 391 kts | 230° |
| 2026-05-07 10:07 | 34.18368 | -114.81387 | 23129 ft | 389 kts | 230° |
| 2026-05-07 10:07 | 34.16583 | -114.83840 | 22894 ft | 389 kts | 230° |
| 2026-05-07 10:08 | 34.14791 | -114.86297 | 22296 ft | 391 kts | 230° |
| 2026-05-07 10:08 | 34.13000 | -114.88758 | 21803 ft | 390 kts | 230° |
| 2026-05-07 10:08 | 34.11212 | -114.91213 | 21296 ft | 389 kts | 229° |
| 2026-05-07 10:08 | 34.09425 | -114.93664 | 20816 ft | 389 kts | 229° |
| 2026-05-07 10:09 | 34.07637 | -114.96110 | 20305 ft | 389 kts | 229° |
| 2026-05-07 10:09 | 34.05848 | -114.98554 | 19807 ft | 388 kts | 229° |
| 2026-05-07 10:09 | 34.04068 | -115.00986 | 19440 ft | 384 kts | 229° |
| 2026-05-07 10:09 | 34.02293 | -115.03408 | 18901 ft | 386 kts | 229° |
| 2026-05-07 10:10 | 34.00532 | -115.05811 | 18606 ft | 380 kts | 229° |
| 2026-05-07 10:10 | 33.98785 | -115.08188 | 18208 ft | 377 kts | 229° |
| 2026-05-07 10:10 | 33.97114 | -115.10603 | 17782 ft | 374 kts | 237° |
| 2026-05-07 10:10 | 33.95892 | -115.13322 | 17230 ft | 366 kts | 250° |
| 2026-05-07 10:11 | 33.95225 | -115.16241 | 16618 ft | 357 kts | 262° |
| 2026-05-07 10:11 | 33.94785 | -115.19112 | 16338 ft | 343 kts | 262° |
| 2026-05-07 10:11 | 33.94338 | -115.21900 | 16081 ft | 337 kts | 261° |
| 2026-05-07 10:11 | 33.93890 | -115.24656 | 15801 ft | 334 kts | 261° |
| 2026-05-07 10:12 | 33.93443 | -115.27390 | 15549 ft | 332 kts | 261° |
| 2026-05-07 10:12 | 33.92997 | -115.30106 | 15288 ft | 330 kts | 261° |
| 2026-05-07 10:12 | 33.92553 | -115.32806 | 15027 ft | 328 kts | 261° |
| 2026-05-07 10:12 | 33.92117 | -115.35462 | 14775 ft | 328 kts | 261° |
| 2026-05-07 10:13 | 33.91820 | -115.37276 | 14604 ft | 327 kts | 261° |
| 2026-05-07 10:13 | 33.91382 | -115.39953 | 14351 ft | 325 kts | 261° |
| 2026-05-07 10:13 | 33.90946 | -115.42621 | 14096 ft | 324 kts | 261° |
| 2026-05-07 10:13 | 33.90510 | -115.45278 | 13838 ft | 323 kts | 261° |
| 2026-05-07 10:14 | 33.89937 | -115.48779 | 13489 ft | 321 kts | 261° |
| 2026-05-07 10:14 | 33.89505 | -115.51413 | 13230 ft | 320 kts | 261° |
| 2026-05-07 10:14 | 33.89076 | -115.54038 | 12979 ft | 319 kts | 261° |
| 2026-05-07 10:14 | 33.88645 | -115.56659 | 12714 ft | 319 kts | 261° |
| 2026-05-07 10:15 | 33.88355 | -115.58423 | 12563 ft | 318 kts | 261° |
| 2026-05-07 10:15 | 33.87937 | -115.61028 | 12309 ft | 316 kts | 264° |
| 2026-05-07 10:15 | 33.87841 | -115.64499 | 11981 ft | 313 kts | 273° |
| 2026-05-07 10:15 | 33.87832 | -115.66270 | 11818 ft | 314 kts | 270° |
| 2026-05-07 10:16 | 33.87342 | -115.68829 | 11581 ft | 317 kts | 247° |
| 2026-05-07 10:16 | 33.86238 | -115.71128 | 11334 ft | 318 kts | 239° |
| 2026-05-07 10:16 | 33.85069 | -115.73383 | 11092 ft | 317 kts | 239° |
| 2026-05-07 10:16 | 33.83899 | -115.75628 | 10846 ft | 316 kts | 239° |
| 2026-05-07 10:17 | 33.82731 | -115.77867 | 10604 ft | 315 kts | 239° |
| 2026-05-07 10:17 | 33.81569 | -115.80098 | 10365 ft | 315 kts | 239° |
| 2026-05-07 10:17 | 33.80410 | -115.82326 | 10126 ft | 313 kts | 239° |
| 2026-05-07 10:17 | 33.79255 | -115.84546 | 10004 ft | 313 kts | 239° |
| 2026-05-07 10:18 | 33.78101 | -115.86763 | 10016 ft | 313 kts | 239° |
| 2026-05-07 10:18 | 33.76946 | -115.88982 | 10017 ft | 313 kts | 239° |
| 2026-05-07 10:18 | 33.75789 | -115.91202 | 10018 ft | 314 kts | 239° |
| 2026-05-07 10:18 | 33.74631 | -115.93424 | 10025 ft | 314 kts | 239° |
| 2026-05-07 10:19 | 33.73490 | -115.95618 | 10018 ft | 313 kts | 239° |
| 2026-05-07 10:19 | 33.72317 | -115.97871 | 10027 ft | 315 kts | 238° |
| 2026-05-07 10:19 | 33.71157 | -116.00093 | 10025 ft | 310 kts | 239° |
| 2026-05-07 10:19 | 33.70036 | -116.02234 | 10027 ft | 295 kts | 239° |
| 2026-05-07 10:20 | 33.68971 | -116.04268 | 10030 ft | 281 kts | 239° |
| 2026-05-07 10:20 | 33.67970 | -116.06174 | 10030 ft | 267 kts | 239° |
| 2026-05-07 10:20 | 33.66981 | -116.08057 | 9666 ft | 269 kts | 239° |
| 2026-05-07 10:20 | 33.65981 | -116.09967 | 9281 ft | 271 kts | 239° |
| 2026-05-07 10:21 | 33.64976 | -116.11887 | 8913 ft | 272 kts | 239° |
| 2026-05-07 10:21 | 33.64048 | -116.13852 | 8528 ft | 268 kts | 251° |
| 2026-05-07 10:21 | 33.63672 | -116.15980 | 8193 ft | 256 kts | 271° |
| 2026-05-07 10:21 | 33.63899 | -116.18044 | 7841 ft | 245 kts | 291° |
| 2026-05-07 10:22 | 33.64614 | -116.19846 | 7495 ft | 235 kts | 303° |
| 2026-05-07 10:22 | 33.65418 | -116.21530 | 7165 ft | 230 kts | 302° |
| 2026-05-07 10:22 | 33.66205 | -116.23189 | 6830 ft | 227 kts | 302° |
| 2026-05-07 10:22 | 33.66977 | -116.24818 | 6515 ft | 221 kts | 301° |
| 2026-05-07 10:23 | 33.67721 | -116.26398 | 6133 ft | 214 kts | 301° |
| 2026-05-07 10:23 | 33.68440 | -116.27923 | 5805 ft | 206 kts | 302° |
| 2026-05-07 10:23 | 33.69137 | -116.29400 | 5493 ft | 200 kts | 302° |
| 2026-05-07 10:23 | 33.69807 | -116.30820 | 5193 ft | 192 kts | 302° |
| 2026-05-07 10:24 | 33.70449 | -116.32189 | 4883 ft | 185 kts | 300° |
| 2026-05-07 10:24 | 33.71061 | -116.33525 | 4581 ft | 180 kts | 300° |
| 2026-05-07 10:24 | 33.71652 | -116.34826 | 4286 ft | 175 kts | 299° |
| 2026-05-07 10:24 | 33.72197 | -116.36030 | 4019 ft | 160 kts | 298° |
| 2026-05-07 10:25 | 33.72706 | -116.37152 | 3747 ft | 146 kts | 299° |
| 2026-05-07 10:25 | 33.73173 | -116.38183 | 3503 ft | 135 kts | 300° |
| 2026-05-07 10:25 | 33.73621 | -116.39167 | 3280 ft | 134 kts | 298° |
| 2026-05-07 10:25 | 33.74123 | -116.40097 | 3057 ft | 132 kts | 310° |
| 2026-05-07 10:26 | 33.74757 | -116.40876 | 2903 ft | 131 kts | 315° |
| 2026-05-07 10:26 | 33.75404 | -116.41656 | 2603 ft | 131 kts | 314° |
| 2026-05-07 10:26 | 33.76038 | -116.42427 | 2418 ft | 130 kts | 314° |
| 2026-05-07 10:26 | 33.76673 | -116.43211 | 2221 ft | 131 kts | 314° |
| 2026-05-07 10:27 | 33.77317 | -116.43981 | 1990 ft | 130 kts | 314° |
| 2026-05-07 10:27 | 33.77956 | -116.44755 | 1744 ft | 131 kts | 311° |
| 2026-05-07 10:27 | 33.78542 | -116.45591 | 1448 ft | 131 kts | 307° |
| 2026-05-07 10:27 | 33.79092 | -116.46455 | 1223 ft | 130 kts | 307° |
| 2026-05-07 10:28 | 33.79648 | -116.47320 | 1040 ft | 131 kts | 308° |
| 2026-05-07 10:28 | 33.80252 | -116.48133 | 839 ft | 130 kts | 314° |
| 2026-05-07 10:28 | 33.80914 | -116.48873 | 676 ft | 130 kts | 319° |
| 2026-05-07 10:28 | 33.81617 | -116.49555 | 520 ft | 130 kts | 322° |
| 2026-05-07 10:29 | 33.82334 | -116.50197 | 415 ft | 121 kts | 324° |
| 2026-05-07 10:29 | 33.82873 | -116.50682 | 427 ft | 72 kts | 323° |
| 2026-05-07 10:29 | 33.83144 | -116.50923 | 443 ft | 34 kts | 323° |
| 2026-05-07 10:30 | 33.83317 | -116.51168 | 451 ft | 11 kts | 226° |
| 2026-05-07 10:30 | 33.83236 | -116.51202 | 450 ft | 14 kts | 182° |
| 2026-05-07 10:30 | 33.83140 | -116.51136 | 447 ft | 18 kts | 143° |
| 2026-05-07 10:30 | 33.83026 | -116.51035 | 430 ft | 22 kts | 143° |
| 2026-05-07 10:31 | 33.82923 | -116.50942 | 441 ft | 16 kts | 143° |
| 2026-05-07 10:31 | 33.82859 | -116.50875 | 423 ft | 14 kts | 139° |
| 2026-05-07 10:31 | 33.82776 | -116.50801 | 428 ft | 9 kts | 143° |
| 2026-05-07 10:31 | 33.82720 | -116.50752 | 426 ft | 11 kts | 144° |
| 2026-05-07 10:32 | 33.82649 | -116.50690 | 429 ft | 12 kts | 143° |
| 2026-05-07 10:32 | 33.82596 | -116.50699 | 430 ft | 4 kts | 216° |
| 2026-05-07 10:32 | 33.82556 | -116.50694 | 427 ft | 9 kts | 142° |
| 2026-05-07 10:32 | 33.82511 | -116.50653 | 423 ft | 8 kts | 143° |
| 2026-05-07 10:33 | 33.82470 | -116.50617 | 422 ft | 8 kts | 144° |
| 2026-05-07 10:33 | 33.82430 | -116.50581 | 425 ft | 7 kts | 143° |
| 2026-05-07 10:33 | 33.82380 | -116.50537 | 414 ft | 10 kts | 143° |
| 2026-05-07 10:33 | 33.82326 | -116.50488 | 420 ft | 9 kts | 143° |
| 2026-05-07 10:34 | 33.82283 | -116.50469 | 418 ft | 8 kts | 193° |
| 2026-05-07 10:34 | 33.82254 | -116.50507 | 424 ft | 3 kts | 233° |
| 2026-05-07 10:34 | 33.82239 | -116.50531 | 423 ft | 5 kts | 233° |
| 2026-05-07 10:34 | 33.82213 | -116.50567 | 419 ft | 6 kts | 212° |
| 2026-05-07 10:35 | 33.82168 | -116.50587 | 425 ft | 7 kts | 237° |
| 2026-05-07 10:35 | 33.82193 | -116.50627 | 421 ft | 6 kts | 319° |
| 2026-05-07 10:35 | 33.82214 | -116.50668 | 427 ft | 5 kts | 285° |
| 2026-05-07 10:35 | 33.82191 | -116.50701 | 422 ft | 2 kts | 225° |
| 2026-05-07 10:36 | 33.82188 | -116.50705 | 422 ft | 0 kts | 225° |
| 2026-05-07 10:37 | 33.72793 | -116.37346 | 3710 ft | 144 kts | 299° |
| 2026-05-07 10:37 | 33.80093 | -116.47935 | 883 ft | 123 kts | 313° |
| 2026-05-07 10:38 | 33.79529 | -116.47141 | 1082 ft | 127 kts | 308° |
| 2026-05-07 10:39 | 33.81575 | -116.49517 | 527 ft | 130 kts | 322° |
| 2026-05-07 10:39 | 33.82292 | -116.50161 | 416 ft | 124 kts | 323° |
| 2026-05-07 10:39 | 33.82849 | -116.50661 | 429 ft | 75 kts | 323° |
| 2026-05-07 10:39 | 33.79904 | -116.47685 | 947 ft | 119 kts | 311° |
| 2026-05-07 10:40 | 33.80145 | -116.48000 | 862 ft | 130 kts | 313° |
| 2026-05-07 10:40 | 33.80799 | -116.48752 | 699 ft | 130 kts | 318° |
| 2026-05-07 10:40 | 33.81495 | -116.49442 | 542 ft | 130 kts | 322° |
| 2026-05-07 10:40 | 33.82215 | -116.50093 | 418 ft | 128 kts | 324° |
| 2026-05-07 10:41 | 33.82801 | -116.50618 | 422 ft | 80 kts | 323° |